createdAt,value
2023-04-09T00:00:47.844Z,12.14
2023-04-09T00:03:25.327Z,12.14
2023-04-09T00:06:06.697Z,12.07
2023-04-09T00:08:33.815Z,12.02
2023-04-09T00:11:00.683Z,11.95
2023-04-09T00:13:38.459Z,11.91
2023-04-09T00:16:06.608Z,11.85
2023-04-09T00:18:33.432Z,11.83
2023-04-09T00:21:00.137Z,11.83
2023-04-09T00:23:27.031Z,11.87
2023-04-09T00:25:53.699Z,11.91
2023-04-09T00:28:20.664Z,11.92
2023-04-09T00:30:47.433Z,11.94
2023-04-09T00:33:14.223Z,11.92
2023-04-09T00:35:41.133Z,11.89
2023-04-09T00:38:09.518Z,11.87
2023-04-09T00:40:36.347Z,11.85
2023-04-09T00:43:06.758Z,11.78
2023-04-09T00:45:33.763Z,11.69
2023-04-09T00:48:04.227Z,11.64
2023-04-09T00:50:31.020Z,11.62
2023-04-09T00:52:57.730Z,11.62
2023-04-09T00:55:25.519Z,11.58
2023-04-09T00:57:52.303Z,11.55
2023-04-09T01:00:19.387Z,11.52
2023-04-09T01:02:46.533Z,11.51
2023-04-09T01:05:14.729Z,11.50
2023-04-09T01:08:09.282Z,11.52
2023-04-09T01:10:47.148Z,11.51
2023-04-09T01:13:24.090Z,11.47
2023-04-09T01:16:01.313Z,11.43
2023-04-09T01:19:02.430Z,11.40
2023-04-09T01:21:32.645Z,11.38
2023-04-09T01:24:26.829Z,11.41
2023-04-09T01:27:08.226Z,11.35
2023-04-09T01:29:51.294Z,11.28
2023-04-09T01:32:20.979Z,11.27
2023-04-09T01:34:48.313Z,11.25
2023-04-09T01:37:34.784Z,11.20
2023-04-09T01:40:08.244Z,11.24
2023-04-09T01:42:43.076Z,11.28
2023-04-09T01:45:16.699Z,11.27
2023-04-09T01:47:44.366Z,11.22
2023-04-09T01:50:11.295Z,11.17
2023-04-09T01:52:41.973Z,11.16
2023-04-09T01:55:11.516Z,11.13
2023-04-09T01:57:40.986Z,11.13
2023-04-09T02:00:11.604Z,11.11
2023-04-09T02:03:01.458Z,11.09
2023-04-09T02:05:36.338Z,11.08
2023-04-09T02:08:06.158Z,11.06
2023-04-09T02:10:38.220Z,11.05
2023-04-09T02:13:06.456Z,11.05
2023-04-09T02:15:36.670Z,11.09
2023-04-09T02:18:03.545Z,11.08
2023-04-09T02:20:30.642Z,11.08
2023-04-09T02:22:59.941Z,11.08
2023-04-09T02:25:27.355Z,11.12
2023-04-09T02:27:54.121Z,11.14
2023-04-09T02:30:20.965Z,11.21
2023-04-09T02:32:47.696Z,11.18
2023-04-09T02:35:15.597Z,11.09
2023-04-09T02:37:42.530Z,11.06
2023-04-09T02:40:09.900Z,11.03
2023-04-09T02:42:36.667Z,11.00
2023-04-09T02:45:03.472Z,11.04
2023-04-09T02:47:31.515Z,11.04
2023-04-09T02:49:58.214Z,11.05
2023-04-09T02:52:28.632Z,11.05
2023-04-09T02:54:55.166Z,11.04
2023-04-09T02:57:21.868Z,11.00
2023-04-09T02:59:48.526Z,11.01
2023-04-09T03:02:15.505Z,11.00
2023-04-09T03:04:44.498Z,10.97
2023-04-09T03:07:11.394Z,10.88
2023-04-09T03:09:38.088Z,10.76
2023-04-09T03:12:04.798Z,10.65
2023-04-09T03:14:31.606Z,10.53
2023-04-09T03:16:58.736Z,10.41
2023-04-09T03:19:25.392Z,10.32
2023-04-09T03:21:52.086Z,10.22
2023-04-09T03:24:23.439Z,10.15
2023-04-09T03:26:50.967Z,10.09
2023-04-09T03:29:17.906Z,10.03
2023-04-09T03:31:44.846Z,9.96
2023-04-09T03:34:11.433Z,9.90
2023-04-09T03:36:38.045Z,9.86
2023-04-09T03:39:10.704Z,9.86
2023-04-09T03:41:47.100Z,9.86
2023-04-09T03:44:16.190Z,9.86
2023-04-09T03:47:09.005Z,9.83
2023-04-09T03:49:37.830Z,9.83
2023-04-09T03:52:17.918Z,9.85
2023-04-09T03:54:50.053Z,9.88
2023-04-09T03:57:21.396Z,9.90
2023-04-09T03:59:50.977Z,9.91
2023-04-09T04:02:20.713Z,9.88
2023-04-09T04:05:01.925Z,9.87
2023-04-09T04:07:33.715Z,9.95
2023-04-09T04:10:09.339Z,10.04
2023-04-09T04:12:36.145Z,10.10
2023-04-09T04:15:16.691Z,10.11
2023-04-09T04:17:49.032Z,10.10
2023-04-09T04:20:39.275Z,10.09
2023-04-09T04:23:10.088Z,10.10
2023-04-09T04:25:45.448Z,10.13
2023-04-09T04:28:16.483Z,10.14
2023-04-09T04:30:43.254Z,10.12
2023-04-09T04:33:10.673Z,10.13
2023-04-09T04:35:45.694Z,10.13
2023-04-09T04:38:29.177Z,10.18
2023-04-09T04:40:58.078Z,10.24
2023-04-09T04:43:25.187Z,10.20
2023-04-09T04:45:54.185Z,10.18
2023-04-09T04:48:24.653Z,10.16
2023-04-09T04:50:59.571Z,10.18
2023-04-09T04:53:31.239Z,10.14
2023-04-09T04:56:00.637Z,10.10
2023-04-09T04:58:27.369Z,10.09
2023-04-09T05:00:58.010Z,10.05
2023-04-09T05:03:27.703Z,10.04
2023-04-09T05:06:24.463Z,10.00
2023-04-09T05:08:52.099Z,9.94
2023-04-09T05:11:18.999Z,9.94
2023-04-09T05:13:47.746Z,9.94
2023-04-09T05:16:19.487Z,9.95
2023-04-09T05:18:54.707Z,10.01
2023-04-09T05:21:21.680Z,10.06
2023-04-09T05:23:48.949Z,10.09
2023-04-09T05:26:15.578Z,10.14
2023-04-09T05:28:50.651Z,10.21
2023-04-09T05:31:19.583Z,10.26
2023-04-09T05:33:53.448Z,10.24
2023-04-09T05:36:26.027Z,10.19
2023-04-09T05:38:53.114Z,10.14
2023-04-09T05:41:19.890Z,10.09
2023-04-09T05:44:01.944Z,9.98
2023-04-09T05:46:31.801Z,9.88
2023-04-09T05:48:59.225Z,9.80
2023-04-09T05:51:27.710Z,9.72
2023-04-09T05:53:55.886Z,9.71
2023-04-09T05:56:23.459Z,9.70
2023-04-09T05:58:57.212Z,9.68
2023-04-09T06:02:13.921Z,9.70
2023-04-09T06:09:01.960Z,9.74
2023-04-09T06:11:57.810Z,9.86
2023-04-09T06:14:32.802Z,9.98
2023-04-09T06:17:04.871Z,10.04
2023-04-09T06:19:34.669Z,10.11
2023-04-09T06:22:01.454Z,10.24
2023-04-09T06:24:32.975Z,10.41
2023-04-09T06:27:00.442Z,10.60
2023-04-09T06:29:27.203Z,10.79
2023-04-09T06:31:54.146Z,10.90
2023-04-09T06:34:20.909Z,10.92
2023-04-09T06:36:47.663Z,10.98
2023-04-09T06:39:14.337Z,11.12
2023-04-09T06:41:41.381Z,11.29
2023-04-09T06:44:25.280Z,11.50
2023-04-09T06:46:55.049Z,11.69
2023-04-09T06:49:21.745Z,11.88
2023-04-09T06:51:48.435Z,12.09
2023-04-09T06:54:15.180Z,12.25
2023-04-09T06:56:42.001Z,12.45
2023-04-09T06:59:09.737Z,12.61
2023-04-09T07:01:37.823Z,12.95
2023-04-09T07:04:05.293Z,13.32
2023-04-09T07:06:34.594Z,13.54
2023-04-09T07:09:01.414Z,13.79
2023-04-09T07:11:30.592Z,14.04
2023-04-09T07:13:57.483Z,14.19
2023-04-09T07:16:24.378Z,14.33
2023-04-09T07:18:56.091Z,14.34
2023-04-09T07:21:27.336Z,14.58
2023-04-09T07:23:59.083Z,14.58
2023-04-09T07:26:33.096Z,14.62
2023-04-09T07:28:59.919Z,14.63
2023-04-09T07:31:27.090Z,14.61
2023-04-09T07:36:35.126Z,14.96
2023-04-09T07:39:01.936Z,15.08
2023-04-09T07:41:31.895Z,15.32
2023-04-09T07:44:03.571Z,15.28
2023-04-09T07:46:30.420Z,14.96
2023-04-09T07:48:57.228Z,14.63
2023-04-09T07:51:32.375Z,14.38
2023-04-09T07:53:59.209Z,14.29
2023-04-09T07:56:26.161Z,14.34
2023-04-09T07:58:54.421Z,14.63
2023-04-09T08:01:27.314Z,14.94
2023-04-09T08:03:54.199Z,15.02
2023-04-09T08:06:21.117Z,14.89
2023-04-09T08:08:47.775Z,14.86
2023-04-09T08:11:14.497Z,15.23
2023-04-09T08:13:42.945Z,15.72
2023-04-09T08:16:10.361Z,16.11
2023-04-09T08:18:37.175Z,16.35
2023-04-09T08:21:07.289Z,16.48
2023-04-09T08:23:33.955Z,16.48
2023-04-09T08:26:00.755Z,16.19
2023-04-09T08:28:27.637Z,15.80
2023-04-09T08:30:54.696Z,15.54
2023-04-09T08:33:22.924Z,15.29
2023-04-09T08:35:49.775Z,15.11
2023-04-09T08:38:19.834Z,14.88
2023-04-09T08:40:46.849Z,14.78
2023-04-09T08:43:16.383Z,14.98
2023-04-09T08:45:43.482Z,15.23
2023-04-09T08:48:13.482Z,15.51
2023-04-09T08:50:43.157Z,15.71
2023-04-09T08:53:11.171Z,16.10
2023-04-09T08:55:38.518Z,17.13
2023-04-09T08:58:07.812Z,20.77
2023-04-09T09:00:34.514Z,23.49
2023-04-09T09:03:05.515Z,25.34
2023-04-09T09:05:40.293Z,28.68
2023-04-09T09:08:09.717Z,28.44
2023-04-09T09:10:46.804Z,26.76
2023-04-09T09:13:24.908Z,26.18
2023-04-09T09:16:11.493Z,27.07
2023-04-09T09:18:41.118Z,26.90
2023-04-09T09:21:15.342Z,27.78
2023-04-09T09:23:42.805Z,28.41
2023-04-09T09:26:18.433Z,30.54
2023-04-09T09:28:49.100Z,33.53
2023-04-09T09:31:17.148Z,36.38
2023-04-09T09:33:44.531Z,38.04
2023-04-09T09:36:11.606Z,38.82
2023-04-09T09:38:53.989Z,38.62
2023-04-09T09:41:22.244Z,36.80
2023-04-09T09:43:50.411Z,37.38
2023-04-09T09:46:17.854Z,39.27
2023-04-09T09:48:51.836Z,41.16
2023-04-09T09:51:27.702Z,42.05
2023-04-09T09:53:58.211Z,37.96
2023-04-09T09:56:34.706Z,35.80
2023-04-09T09:59:16.243Z,36.44
2023-04-09T10:01:48.615Z,33.95
2023-04-09T10:04:21.668Z,30.55
2023-04-09T10:06:52.189Z,28.66
2023-04-09T10:09:22.846Z,31.40
2023-04-09T10:11:50.500Z,33.47
2023-04-09T10:14:19.168Z,32.59
2023-04-09T10:16:50.674Z,30.33
2023-04-09T10:19:24.922Z,27.56
2023-04-09T10:21:58.337Z,25.72
2023-04-09T10:24:29.487Z,25.05
2023-04-09T10:27:10.575Z,24.57
2023-04-09T10:29:45.824Z,23.67
2023-04-09T10:32:13.864Z,22.72
2023-04-09T10:34:42.797Z,21.89
2023-04-09T10:37:16.128Z,21.26
2023-04-09T10:39:48.200Z,21.37
2023-04-09T10:42:21.822Z,21.63
2023-04-09T10:45:07.721Z,21.92
2023-04-09T10:47:37.117Z,21.81
2023-04-09T10:50:27.125Z,21.95
2023-04-09T10:52:56.728Z,22.19
2023-04-09T10:55:42.572Z,23.36
2023-04-09T10:58:13.104Z,23.93
2023-04-09T11:00:42.541Z,23.62
2023-04-09T11:03:30.583Z,23.09
2023-04-09T11:06:07.402Z,22.96
2023-04-09T11:08:38.432Z,22.81
2023-04-09T11:11:06.150Z,22.71
2023-04-09T11:13:34.254Z,22.71
2023-04-09T11:16:04.056Z,22.27
2023-04-09T11:18:34.865Z,22.07
2023-04-09T11:21:02.252Z,21.88
2023-04-09T11:23:29.151Z,21.35
2023-04-09T11:25:56.582Z,20.84
2023-04-09T11:28:25.714Z,20.64
2023-04-09T11:30:53.075Z,20.77
2023-04-09T11:33:20.751Z,20.61
2023-04-09T11:35:48.560Z,20.51
2023-04-09T11:38:15.859Z,20.44
2023-04-09T11:40:48.732Z,20.26
2023-04-09T11:43:16.951Z,19.85
2023-04-09T11:45:44.811Z,19.62
2023-04-09T11:48:13.066Z,19.70
2023-04-09T11:50:40.671Z,19.76
2023-04-09T11:53:37.653Z,19.32
2023-04-09T11:56:04.734Z,19.18
2023-04-09T11:58:32.232Z,19.20
2023-04-09T12:01:00.075Z,19.27
2023-04-09T12:03:33.894Z,19.32
2023-04-09T12:06:02.876Z,19.33
2023-04-09T12:08:39.168Z,19.55
2023-04-09T12:11:15.541Z,19.88
2023-04-09T12:13:45.006Z,20.11
2023-04-09T12:16:16.870Z,20.03
2023-04-09T12:18:43.831Z,19.97
2023-04-09T12:21:11.384Z,19.68
2023-04-09T12:23:39.537Z,19.38
2023-04-09T12:26:06.781Z,19.11
2023-04-09T12:28:33.657Z,18.99
2023-04-09T12:31:00.590Z,18.93
2023-04-09T12:33:27.438Z,19.20
2023-04-09T12:35:54.433Z,19.43
2023-04-09T12:38:21.459Z,19.52
2023-04-09T12:40:48.257Z,19.70
2023-04-09T12:43:15.897Z,19.90
2023-04-09T12:45:42.774Z,19.85
2023-04-09T12:48:11.682Z,19.79
2023-04-09T12:50:41.529Z,19.68
2023-04-09T12:53:09.077Z,19.71
2023-04-09T12:55:36.208Z,19.48
2023-04-09T12:58:05.934Z,19.43
2023-04-09T13:00:35.624Z,19.63
2023-04-09T13:03:02.442Z,19.83
2023-04-09T13:05:31.546Z,19.61
2023-04-09T13:07:59.591Z,19.10
2023-04-09T13:10:26.531Z,18.77
2023-04-09T13:12:53.392Z,18.53
2023-04-09T13:15:20.446Z,18.39
2023-04-09T13:17:47.344Z,18.39
2023-04-09T13:20:17.368Z,18.76
2023-04-09T13:22:48.772Z,18.96
2023-04-09T13:25:16.627Z,18.91
2023-04-09T13:27:43.903Z,18.64
2023-04-09T13:30:10.937Z,18.49
2023-04-09T13:32:38.266Z,18.55
2023-04-09T13:35:06.642Z,18.69
2023-04-09T13:37:33.517Z,18.90
2023-04-09T13:40:01.089Z,18.95
2023-04-09T13:42:28.403Z,18.97
2023-04-09T13:44:57.588Z,19.02
2023-04-09T13:47:24.488Z,19.14
2023-04-09T13:49:54.415Z,19.23
2023-04-09T13:52:29.291Z,19.34
2023-04-09T13:55:01.566Z,19.39
2023-04-09T13:57:28.922Z,19.19
2023-04-09T13:59:56.094Z,18.71
2023-04-09T14:02:23.870Z,18.34
2023-04-09T14:04:51.529Z,18.09
2023-04-09T14:07:30.230Z,18.00
2023-04-09T14:16:59.338Z,18.46
2023-04-09T14:19:44.317Z,18.60
2023-04-09T14:22:11.958Z,18.70
2023-04-09T14:24:50.629Z,18.84
2023-04-09T14:27:17.643Z,18.79
2023-04-09T14:29:44.436Z,18.76
2023-04-09T14:32:13.706Z,18.79
2023-04-09T14:34:43.628Z,18.77
2023-04-09T14:37:12.237Z,18.70
2023-04-09T14:39:39.227Z,18.63
2023-04-09T14:42:06.389Z,18.52
2023-04-09T14:44:41.282Z,18.65
2023-04-09T14:47:11.771Z,18.62
2023-04-09T14:49:39.249Z,18.55
2023-04-09T14:52:06.535Z,18.59
2023-04-09T14:54:43.552Z,18.63
2023-04-09T14:57:12.406Z,18.53
2023-04-09T14:59:39.245Z,18.40
2023-04-09T15:02:06.286Z,18.64
2023-04-09T15:04:34.050Z,19.03
2023-04-09T15:07:03.849Z,19.32
2023-04-09T15:09:30.700Z,19.37
2023-04-09T15:11:58.019Z,19.24
2023-04-09T15:14:25.210Z,19.19
2023-04-09T15:16:55.752Z,18.71
2023-04-09T15:19:22.970Z,18.24
2023-04-09T15:21:49.820Z,18.00
2023-04-09T15:24:16.694Z,17.75
2023-04-09T15:26:43.598Z,17.48
2023-04-09T15:29:12.453Z,17.33
2023-04-09T15:31:41.326Z,17.33
2023-04-09T15:34:08.808Z,17.23
2023-04-09T15:36:36.659Z,17.08
2023-04-09T15:39:04.764Z,16.92
2023-04-09T15:41:32.811Z,16.83
2023-04-09T15:43:59.779Z,16.92
2023-04-09T15:46:26.649Z,17.11
2023-04-09T15:48:56.251Z,17.12
2023-04-09T15:51:22.978Z,17.11
2023-04-09T15:53:49.873Z,17.23
2023-04-09T15:56:17.360Z,17.35
2023-04-09T15:58:44.947Z,17.44
2023-04-09T16:01:12.911Z,17.48
2023-04-09T16:03:41.142Z,17.52
2023-04-09T16:06:15.152Z,17.41
2023-04-09T16:08:44.702Z,17.19
2023-04-09T16:11:11.458Z,17.07
2023-04-09T16:13:41.288Z,17.06
2023-04-09T16:16:09.448Z,17.10
2023-04-09T16:18:39.617Z,17.05
2023-04-09T16:21:12.984Z,17.03
2023-04-09T16:23:41.077Z,17.06
2023-04-09T16:26:08.039Z,17.18
2023-04-09T16:28:36.442Z,17.27
2023-04-09T16:31:03.227Z,17.26
2023-04-09T16:33:30.612Z,17.24
2023-04-09T16:35:58.274Z,17.21
2023-04-09T16:38:29.275Z,17.17
2023-04-09T16:40:56.491Z,17.05
2023-04-09T16:43:23.502Z,16.94
2023-04-09T16:45:50.462Z,16.82
2023-04-09T16:48:17.487Z,16.67
2023-04-09T16:50:44.557Z,16.54
2023-04-09T16:53:11.294Z,16.40
2023-04-09T16:55:38.234Z,16.29
2023-04-09T16:58:05.521Z,16.22
2023-04-09T17:00:32.591Z,16.17
2023-04-09T17:02:59.766Z,16.09
2023-04-09T17:05:26.613Z,15.99
2023-04-09T17:07:53.726Z,15.94
2023-04-09T17:10:20.983Z,15.89
2023-04-09T17:12:48.747Z,15.86
2023-04-09T17:15:16.230Z,15.81
2023-04-09T17:17:53.696Z,15.79
2023-04-09T17:20:22.622Z,15.75
2023-04-09T17:22:49.657Z,15.75
2023-04-09T17:25:16.811Z,15.74
2023-04-09T17:27:45.342Z,15.69
2023-04-09T17:30:13.011Z,15.65
2023-04-09T17:32:40.722Z,15.60
2023-04-09T17:35:08.030Z,15.58
2023-04-09T17:37:35.357Z,15.54
2023-04-09T17:40:03.392Z,15.51
2023-04-09T17:42:31.369Z,15.47
2023-04-09T17:44:58.208Z,15.41
2023-04-09T17:47:25.025Z,15.38
2023-04-09T17:49:52.697Z,15.35
2023-04-09T17:52:20.568Z,15.31
2023-04-09T17:54:47.317Z,15.27
2023-04-09T17:57:14.061Z,15.22
2023-04-09T17:59:41.083Z,15.16
2023-04-09T18:02:08.172Z,15.11
2023-04-09T18:04:35.585Z,15.07
2023-04-09T18:07:03.892Z,15.03
2023-04-09T18:09:32.196Z,14.98
2023-04-09T18:12:01.101Z,14.93
2023-04-09T18:14:32.406Z,14.88
2023-04-09T18:17:01.872Z,14.81
2023-04-09T18:19:28.734Z,14.77
2023-04-09T18:21:55.507Z,14.74
2023-04-09T18:24:22.237Z,14.71
2023-04-09T18:26:49.039Z,14.68
2023-04-09T18:29:15.761Z,14.63
2023-04-09T18:31:42.696Z,14.60
2023-04-09T18:34:10.378Z,14.56
2023-04-09T18:36:37.077Z,14.52
2023-04-09T18:39:05.125Z,14.46
2023-04-09T18:41:32.349Z,14.41
2023-04-09T18:43:59.195Z,14.36
2023-04-09T18:46:28.482Z,14.34
2023-04-09T18:48:56.352Z,14.30
2023-04-09T18:51:23.060Z,14.27
2023-04-09T18:53:53.036Z,14.24
2023-04-09T18:56:20.325Z,14.20
2023-04-09T18:58:48.334Z,14.18
2023-04-09T19:01:17.394Z,14.14
2023-04-09T19:03:44.839Z,14.11
2023-04-09T19:06:20.536Z,14.06
2023-04-09T19:08:48.130Z,14.03
2023-04-09T19:11:18.600Z,14.00
2023-04-09T19:13:46.308Z,13.98
2023-04-09T19:16:13.481Z,13.96
2023-04-09T19:18:40.688Z,13.93
2023-04-09T19:21:35.951Z,13.93
2023-04-09T19:24:05.482Z,13.90
2023-04-09T19:26:33.312Z,13.88
2023-04-09T19:29:25.282Z,13.83
2023-04-09T19:31:57.447Z,13.75
2023-04-09T19:34:25.512Z,13.72
2023-04-09T19:36:52.925Z,13.68
2023-04-09T19:39:23.139Z,13.63
2023-04-09T19:42:14.274Z,13.59
2023-04-09T19:44:56.120Z,13.53
2023-04-09T19:47:37.526Z,13.48
2023-04-09T19:50:34.621Z,13.46
2023-04-09T19:53:04.092Z,13.42
2023-04-09T19:55:38.148Z,13.40
2023-04-09T19:58:05.930Z,13.42
2023-04-09T20:00:33.835Z,13.41
2023-04-09T20:03:01.230Z,13.36
2023-04-09T20:05:28.058Z,13.29
2023-04-09T20:07:54.900Z,13.22
2023-04-09T20:10:40.441Z,13.19
2023-04-09T20:15:59.095Z,13.07
2023-04-09T20:18:55.023Z,13.02
2023-04-09T20:21:25.098Z,12.97
2023-04-09T20:23:52.037Z,12.92
2023-04-09T20:26:29.360Z,12.87
2023-04-09T20:29:12.002Z,12.85
2023-04-09T20:32:07.361Z,12.82
2023-04-09T20:34:45.420Z,12.76
2023-04-09T20:37:12.304Z,12.72
2023-04-09T20:39:41.265Z,12.72
2023-04-09T20:42:11.396Z,12.66
2023-04-09T20:44:41.905Z,12.62
2023-04-09T20:47:08.789Z,12.58
2023-04-09T20:49:43.327Z,12.55
2023-04-09T20:52:22.764Z,12.54
2023-04-09T20:54:55.402Z,12.51
2023-04-09T20:57:23.258Z,12.49
2023-04-09T20:59:50.405Z,12.50
2023-04-09T21:02:27.302Z,12.49
2023-04-09T21:05:19.530Z,12.45
2023-04-09T21:08:01.380Z,12.41
2023-04-09T21:10:37.427Z,12.38
2023-04-09T21:13:21.771Z,12.35
2023-04-09T21:15:53.866Z,12.29
2023-04-09T21:18:31.529Z,12.27
2023-04-09T21:21:05.949Z,12.26
2023-04-09T21:23:43.840Z,12.25
2023-04-09T21:26:14.798Z,12.25
2023-04-09T21:29:01.963Z,12.25
2023-04-09T21:31:32.043Z,12.22
2023-04-09T21:33:59.816Z,12.19
2023-04-09T21:36:27.557Z,12.17
2023-04-09T21:38:54.439Z,12.15
2023-04-09T21:41:23.601Z,12.11
2023-04-09T21:43:50.471Z,12.07
2023-04-09T21:46:17.606Z,12.06
2023-04-09T21:48:44.830Z,12.02
2023-04-09T21:51:12.409Z,12.00
2023-04-09T21:53:39.196Z,11.97
2023-04-09T21:56:06.403Z,11.96
2023-04-09T21:58:36.431Z,11.93
2023-04-09T22:01:15.698Z,11.91
2023-04-09T22:03:59.819Z,11.86
2023-04-09T22:06:32.658Z,11.83
2023-04-09T22:08:59.834Z,11.82
2023-04-09T22:11:28.475Z,11.80
2023-04-09T22:13:57.319Z,11.79
2023-04-09T22:16:24.970Z,11.77
2023-04-09T22:18:54.513Z,11.75
2023-04-09T22:21:22.479Z,11.68
2023-04-09T22:23:49.206Z,11.61
2023-04-09T22:26:16.251Z,11.61
2023-04-09T22:28:43.321Z,11.62
2023-04-09T22:31:10.392Z,11.62
2023-04-09T22:33:37.257Z,11.63
2023-04-09T22:36:04.288Z,11.62
2023-04-09T22:38:32.262Z,11.59
2023-04-09T22:41:03.508Z,11.57
2023-04-09T22:43:32.979Z,11.56
2023-04-09T22:46:00.275Z,11.55
2023-04-09T22:48:29.069Z,11.53
2023-04-09T22:50:57.796Z,11.51
2023-04-09T22:53:24.697Z,11.48
2023-04-09T22:55:55.478Z,11.47
2023-04-09T22:58:25.725Z,11.47
2023-04-09T23:00:55.181Z,11.48
2023-04-09T23:03:27.450Z,11.46
2023-04-09T23:05:54.291Z,11.42
2023-04-09T23:08:21.550Z,11.42
2023-04-09T23:10:48.760Z,11.42
2023-04-09T23:13:17.211Z,11.41
2023-04-09T23:15:44.704Z,11.41
2023-04-09T23:18:12.661Z,11.40
2023-04-09T23:20:43.501Z,11.38
2023-04-09T23:23:16.153Z,11.37
2023-04-09T23:25:52.601Z,11.36
2023-04-09T23:28:19.407Z,11.35
2023-04-09T23:30:48.904Z,11.33
2023-04-09T23:33:15.835Z,11.29
2023-04-09T23:35:42.447Z,11.26
2023-04-09T23:38:09.321Z,11.25
2023-04-09T23:40:36.244Z,11.23
2023-04-09T23:43:03.012Z,11.23
2023-04-09T23:45:29.668Z,11.22
2023-04-09T23:47:57.519Z,11.21
2023-04-09T23:50:24.609Z,11.19
2023-04-09T23:52:51.792Z,11.15
2023-04-09T23:55:18.923Z,11.13
2023-04-09T23:57:45.766Z,11.12
